Winding Gulf, West Virginia
Current Conditions -  °F | °C
As of 8:51 AM on Sunday 25 Jan 2015 (Local Time) from KBKW Reporting Station
Broken Clouds Broken Clouds  
Wind Chill: 27°   Ceiling: 4500
Heat Index: 33°   Visibility: 10mi
Dew Point: 27°   Wind: 7mph
Humidity: 78%   Direction: 210°SSW
Pressure: 29.8"   Gusts: NA
Location:  37.6583°N, 81.237°W
Report Text: KBKW 251351Z AUTO 21006KT 10SM BKN045 01/M03 A2980 RMK AO2 SLP118 T00061028
Loading
Personal Weather Stations






























Interactive Weather Map New forecast layout! Learn more

10-Day Weather Forecast

Advertisements
Track Severe Weather on mobile